Time;durP1;ratioP1;P1;durP2;ratioP2;P2;SDS_P1;SDS_P2;PMS_P1;PMS_P2;Temp;Humidity;BMP_temperature;BMP_pressure;BME280_temperature;BME280_humidity;BME280_pressure;Samples;Min_cycle;Max_cycle;Signal;HPM_P1;HPM_P2
2023/08/12 00:02:02;;;;;;;3.9;3.5;;;;;;;18.42;91.70508;942.782;;;;
2023/08/12 00:04:31;;;;;;;3.7;3.3;;;;;;;18.31;92.27344;942.7211;;;;
2023/08/12 00:06:56;;;;;;;3.5;3.1;;;;;;;18.35;91.93457;942.6916;;;;
2023/08/12 00:09:22;;;;;;;3.5;3.2;;;;;;;18.25;92.44824;942.7001;;;;
2023/08/12 00:11:47;;;;;;;3.4;2.9;;;;;;;18.21;92.77539;942.6649;;;;
2023/08/12 00:14:14;;;;;;;5.4;3.2;;;;;;;18.2;92.62305;942.6674;;;;
2023/08/12 00:16:39;;;;;;;5.5;3.7;;;;;;;18.16;92.9043;942.597;;;;
2023/08/12 00:19:08;;;;;;;4.3;3.5;;;;;;;18.02;93.57227;942.6294;;;;
2023/08/12 00:21:32;;;;;;;5;3.2;;;;;;;18.09;93.64746;942.5616;;;;
2023/08/12 00:23:59;;;;;;;3.4;2.7;;;;;;;18.2;92.22754;942.5078;;;;
2023/08/12 00:26:24;;;;;;;3.6;3;;;;;;;18.29;91.7334;942.5424;;;;
2023/08/12 00:28:51;;;;;;;3.2;2.9;;;;;;;18.32;91.46191;942.4928;;;;
2023/08/12 00:34:05;;;;;;;4.5;3.8;;;;;;;18.17;92.32715;942.4711;;;;
2023/08/12 00:36:30;;;;;;;5.3;3.4;;;;;;;18.23;91.96582;942.486;;;;
2023/08/12 00:38:56;;;;;;;4;3.2;;;;;;;18.09;92.44922;942.5012;;;;
2023/08/12 00:41:21;;;;;;;4.5;3.6;;;;;;;18.11;92.2207;942.4517;;;;
2023/08/12 00:43:46;;;;;;;3.9;3.3;;;;;;;18.01;92.80371;942.4551;;;;
2023/08/12 00:46:11;;;;;;;4.1;3.2;;;;;;;17.96;93.12891;942.43;;;;
2023/08/12 00:48:36;;;;;;;4.4;3.3;;;;;;;17.87;93.4834;942.4375;;;;
2023/08/12 00:51:03;;;;;;;4;3.1;;;;;;;17.86;93.75781;942.3989;;;;
2023/08/12 00:53:28;;;;;;;4;3.3;;;;;;;17.67;94.77441;942.4545;;;;
2023/08/12 00:55:59;;;;;;;5;3.4;;;;;;;17.65;94.99023;942.4144;;;;
2023/08/12 00:58:24;;;;;;;5.8;3.4;;;;;;;17.75;94.1875;942.3837;;;;
2023/08/12 01:00:49;;;;;;;3.9;3.4;;;;;;;17.67;94.37891;942.4135;;;;
2023/08/12 01:03:15;;;;;;;4.2;3.4;;;;;;;17.72;94.06445;942.385;;;;
2023/08/12 01:05:40;;;;;;;3.5;3.2;;;;;;;17.79;93.84961;942.3406;;;;
2023/08/12 01:08:08;;;;;;;3.2;2.9;;;;;;;17.72;94.10059;942.397;;;;
2023/08/12 01:10:33;;;;;;;3.7;3.3;;;;;;;17.77;93.65918;942.3586;;;;
2023/08/12 01:13:03;;;;;;;3.9;3.5;;;;;;;17.75;93.5498;942.3508;;;;
2023/08/12 01:15:31;;;;;;;3.6;3.1;;;;;;;17.73;93.60156;942.3792;;;;
2023/08/12 01:17:57;;;;;;;4.2;3.3;;;;;;;17.64;94.00195;942.3228;;;;
2023/08/12 01:20:24;;;;;;;4;3.2;;;;;;;17.58;94.18555;942.3497;;;;
2023/08/12 01:22:52;;;;;;;3.9;3.4;;;;;;;17.53;94.62891;942.3156;;;;
2023/08/12 01:25:17;;;;;;;5.1;3.2;;;;;;;17.5;94.49512;942.3571;;;;
2023/08/12 01:27:42;;;;;;;4.2;3.4;;;;;;;17.33;95.60645;942.2957;;;;
2023/08/12 01:30:14;;;;;;;3.9;3.4;;;;;;;17.31;96.59766;942.3072;;;;
2023/08/12 01:32:40;;;;;;;3.9;3.3;;;;;;;17.36;96.60938;942.223;;;;
2023/08/12 01:35:05;;;;;;;3.3;3;;;;;;;17.46;95.98242;942.2648;;;;
2023/08/12 01:37:30;;;;;;;4;3.5;;;;;;;17.56;94.86816;942.2275;;;;
2023/08/12 01:39:55;;;;;;;3.8;3.4;;;;;;;17.66;93.55566;942.2194;;;;
2023/08/12 01:42:20;;;;;;;4;3.6;;;;;;;17.5;94.8877;942.2266;;;;
2023/08/12 01:44:45;;;;;;;4.4;3.7;;;;;;;17.47;95.0332;942.1214;;;;
2023/08/12 01:47:12;;;;;;;4.7;3.5;;;;;;;17.51;94.68262;942.1717;;;;
2023/08/12 01:49:38;;;;;;;6.3;4.4;;;;;;;17.43;94.87402;942.2506;;;;
2023/08/12 01:52:03;;;;;;;34.8;19;;;;;;;17.42;94.98633;942.1128;;;;
2023/08/12 01:54:33;;;;;;;5.8;4.3;;;;;;;17.18;96.17578;942.1559;;;;
2023/08/12 01:56:53;;;;;;;5.3;3.7;;;;;;;17.23;96.00195;942.0648;;;;
2023/08/12 01:59:18;;;;;;;4.7;4.2;;;;;;;17.19;96.11035;942.085;;;;
2023/08/12 02:01:46;;;;;;;4.6;3.6;;;;;;;17.14;96.17969;942.0767;;;;
2023/08/12 02:04:11;;;;;;;6.1;4;;;;;;;17.08;97.09277;942.0524;;;;
2023/08/12 02:06:37;;;;;;;3.7;3.4;;;;;;;17.01;97.3916;942.0245;;;;
2023/08/12 02:09:02;;;;;;;4;3.4;;;;;;;17.18;96.05957;942.0474;;;;
2023/08/12 02:11:28;;;;;;;3.7;3.3;;;;;;;17.14;95.47266;942.005;;;;
2023/08/12 02:13:53;;;;;;;4.5;3.7;;;;;;;17.14;95.44727;942.063;;;;
2023/08/12 02:16:24;;;;;;;3.7;3.3;;;;;;;17.11;95.5918;942.0392;;;;
2023/08/12 02:18:44;;;;;;;4.4;3.5;;;;;;;17.11;95.61523;941.9756;;;;
2023/08/12 02:21:09;;;;;;;4.2;3.4;;;;;;;16.98;96.36426;941.9467;;;;
2023/08/12 02:23:38;;;;;;;4;3.3;;;;;;;17.01;96.12695;941.9465;;;;
2023/08/12 02:26:05;;;;;;;3.9;3.4;;;;;;;16.94;96.56445;941.9302;;;;
2023/08/12 02:28:30;;;;;;;5;3.5;;;;;;;16.98;96.41016;941.8986;;;;
2023/08/12 02:30:57;;;;;;;5.3;3.7;;;;;;;16.96;96.23047;941.8987;;;;
2023/08/12 02:33:23;;;;;;;4.6;3.3;;;;;;;16.83;97.32617;941.8685;;;;
2023/08/12 02:35:50;;;;;;;5.2;3.6;;;;;;;16.79;98.12695;941.9152;;;;
2023/08/12 02:38:15;;;;;;;3.9;3.2;;;;;;;16.84;97.8291;941.8499;;;;
2023/08/12 02:40:42;;;;;;;3.7;3.3;;;;;;;16.8;98.16602;941.7647;;;;
2023/08/12 02:43:07;;;;;;;4;3.2;;;;;;;16.93;96.87402;941.8;;;;
2023/08/12 02:45:33;;;;;;;3.3;2.9;;;;;;;16.99;96.10156;941.8042;;;;
2023/08/12 02:47:58;;;;;;;5.4;3.4;;;;;;;16.83;96.77051;941.8002;;;;
2023/08/12 02:50:24;;;;;;;4.9;3.5;;;;;;;16.85;96.67188;941.7967;;;;
2023/08/12 02:52:49;;;;;;;3.6;3.3;;;;;;;16.82;96.46973;941.7906;;;;
2023/08/12 02:55:20;;;;;;;3.8;3.4;;;;;;;16.7;97.1709;941.7986;;;;
2023/08/12 02:57:47;;;;;;;4.7;3.7;;;;;;;16.56;98.06738;941.7814;;;;
2023/08/12 03:00:12;;;;;;;3.9;3.4;;;;;;;16.45;98.68945;941.8184;;;;
2023/08/12 03:02:40;;;;;;;5;3.6;;;;;;;16.33;99.84277;941.7644;;;;
2023/08/12 03:05:05;;;;;;;3.5;3.2;;;;;;;16.41;99.38672;941.7693;;;;
2023/08/12 03:07:34;;;;;;;4;3.4;;;;;;;16.42;99.03027;941.7697;;;;
2023/08/12 03:09:59;;;;;;;3.5;3.2;;;;;;;16.35;99.48633;941.7338;;;;
2023/08/12 03:12:29;;;;;;;3.3;3;;;;;;;16.32;100;941.7444;;;;
2023/08/12 03:14:54;;;;;;;4.5;3.2;;;;;;;16.31;100;941.7492;;;;
2023/08/12 03:17:19;;;;;;;3.6;3.2;;;;;;;16.21;100;941.7569;;;;
2023/08/12 03:23:11;;;;;;;4.8;3.3;;;;;;;16.17;100;941.7539;;;;
2023/08/12 03:25:39;;;;;;;4.7;3.3;;;;;;;16.18;100;941.7032;;;;
2023/08/12 03:28:07;;;;;;;5.1;3.2;;;;;;;16.3;100;941.7357;;;;
2023/08/12 03:30:32;;;;;;;4.6;3.5;;;;;;;16.26;100;941.711;;;;
2023/08/12 03:32:57;;;;;;;4.3;3.4;;;;;;;16.25;100;941.6484;;;;
2023/08/12 03:35:23;;;;;;;4.3;3.5;;;;;;;16.27;100;941.6153;;;;
2023/08/12 03:37:48;;;;;;;3.7;3.2;;;;;;;16.13;100;941.6401;;;;
2023/08/12 03:40:19;;;;;;;4.3;3.4;;;;;;;16.04;100;941.582;;;;
2023/08/12 03:42:44;;;;;;;4.1;3.3;;;;;;;16.09;100;941.593;;;;
2023/08/12 03:45:09;;;;;;;3.6;3.3;;;;;;;16.16;100;941.6117;;;;
2023/08/12 03:47:37;;;;;;;3.8;3.4;;;;;;;16.18;100;941.5826;;;;
2023/08/12 03:50:02;;;;;;;4.7;3.7;;;;;;;16.36;100;941.5953;;;;
2023/08/12 03:52:30;;;;;;;5.7;5.2;;;;;;;16.26;100;941.6467;;;;
2023/08/12 03:54:55;;;;;;;4;3.6;;;;;;;16.31;99.63086;941.6625;;;;
2023/08/12 03:57:21;;;;;;;5.2;4.8;;;;;;;16.35;100;941.6091;;;;
2023/08/12 03:59:46;;;;;;;3.9;3.5;;;;;;;16.37;99.93262;941.6418;;;;
2023/08/12 04:02:31;;;;;;;3.7;3.1;;;;;;;16.52;99.06445;941.6418;;;;
2023/08/12 04:04:56;;;;;;;4.4;3.1;;;;;;;16.65;97.69141;941.6347;;;;
2023/08/12 04:07:24;;;;;;;4;3.1;;;;;;;16.71;97.20801;941.616;;;;
2023/08/12 04:09:49;;;;;;;3.8;3.2;;;;;;;16.68;96.5166;941.6178;;;;
2023/08/12 04:12:14;;;;;;;3.6;3.1;;;;;;;16.36;98.0459;941.5632;;;;
2023/08/12 04:14:40;;;;;;;3.1;2.8;;;;;;;16.38;97.89746;941.5872;;;;
2023/08/12 04:17:04;;;;;;;4.4;3.1;;;;;;;16.39;97.16113;941.5944;;;;
2023/08/12 04:19:29;;;;;;;4.8;3.8;;;;;;;16.3;97.36133;941.6448;;;;
2023/08/12 04:22:51;;;;;;;5.4;3.1;;;;;;;16.29;97.69238;941.6241;;;;
2023/08/12 04:25:22;;;;;;;4.3;3.2;;;;;;;16.33;97.41309;941.623;;;;
2023/08/12 04:27:51;;;;;;;5.8;3.3;;;;;;;16.23;97.88672;941.6663;;;;
2023/08/12 04:30:16;;;;;;;6.5;3.4;;;;;;;16.34;96.9873;941.6284;;;;
2023/08/12 04:32:44;;;;;;;3.3;3;;;;;;;16.28;97.40332;941.6811;;;;
2023/08/12 04:35:10;;;;;;;3.4;2.9;;;;;;;16.19;98.27148;941.6839;;;;
2023/08/12 04:37:37;;;;;;;5.9;3.1;;;;;;;16.1;99.2002;941.6741;;;;
2023/08/12 04:40:02;;;;;;;3.3;3;;;;;;;16.1;99.09766;941.5912;;;;
2023/08/12 04:42:27;;;;;;;3.4;3.1;;;;;;;16.24;98.72363;941.6573;;;;
2023/08/12 04:44:52;;;;;;;4;3.1;;;;;;;16.34;97.79688;941.6534;;;;
2023/08/12 04:47:18;;;;;;;3.3;3;;;;;;;16.37;97.76855;941.6178;;;;
2023/08/12 04:49:44;;;;;;;3.3;3;;;;;;;16.37;97.66406;941.6114;;;;
2023/08/12 04:52:09;;;;;;;3.2;2.9;;;;;;;16.34;97.71582;941.6686;;;;
2023/08/12 04:54:35;;;;;;;3.8;2.9;;;;;;;16.29;98.46777;941.6264;;;;
2023/08/12 04:57:00;;;;;;;4.4;3.2;;;;;;;16.31;98.66992;941.5933;;;;
2023/08/12 04:59:26;;;;;;;3.8;3;;;;;;;16.36;98.10352;941.605;;;;
2023/08/12 05:01:51;;;;;;;4;3.2;;;;;;;16.36;98.3584;941.6074;;;;
2023/08/12 05:04:18;;;;;;;4.7;3.3;;;;;;;16.45;97.94824;941.6119;;;;
2023/08/12 05:06:43;;;;;;;4.2;3.3;;;;;;;16.56;97.2207;941.6705;;;;
2023/08/12 05:09:10;;;;;;;4.4;3;;;;;;;16.48;97.43555;941.6816;;;;
2023/08/12 05:11:38;;;;;;;3.7;2.6;;;;;;;16.47;97.84863;941.6245;;;;
2023/08/12 05:14:03;;;;;;;6.4;3.2;;;;;;;16.47;97.5127;941.639;;;;
2023/08/12 05:16:30;;;;;;;3.2;2.9;;;;;;;16.56;97.54395;941.6431;;;;
2023/08/12 05:18:55;;;;;;;5.1;3.1;;;;;;;16.73;96.8418;941.6093;;;;
2023/08/12 05:21:24;;;;;;;4.3;3.1;;;;;;;16.78;96.37891;941.666;;;;
2023/08/12 05:26:16;;;;;;;3.2;2.8;;;;;;;16.84;96.22852;941.7237;;;;
2023/08/12 05:28:41;;;;;;;3.4;3.1;;;;;;;16.9;96.12598;941.6708;;;;
2023/08/12 05:31:07;;;;;;;3.7;3.1;;;;;;;17.05;95.29102;941.5779;;;;
2023/08/12 05:33:32;;;;;;;3.9;3.5;;;;;;;17.38;97.49512;941.5795;;;;
2023/08/12 05:36:00;;;;;;;2.7;2.5;;;;;;;18.81;90.76074;941.5425;;;;
2023/08/12 05:38:25;;;;;;;2.6;2.4;;;;;;;20.35;81.41016;941.6057;;;;
2023/08/12 05:40:51;;;;;;;2.9;2.4;;;;;;;21.64;73.4502;941.5707;;;;
2023/08/12 05:43:52;;;;;;;2.7;2.4;;;;;;;22.35;70.4248;941.5592;;;;
2023/08/12 05:46:17;;;;;;;3;2.3;;;;;;;22.78;67.76953;941.5372;;;;
2023/08/12 05:49:33;;;;;;;2.9;2.7;;;;;;;23.83;63.47949;941.5236;;;;
2023/08/12 05:52:01;;;;;;;2.3;2.1;;;;;;;24.38;62.13281;941.5945;;;;
2023/08/12 05:54:26;;;;;;;2.7;2.5;;;;;;;24.05;62.4043;941.5753;;;;
2023/08/12 05:56:52;;;;;;;2.2;2;;;;;;;25.25;57.90918;941.595;;;;
2023/08/12 05:59:17;;;;;;;2.8;2.3;;;;;;;25.7;56.06445;941.5168;;;;
2023/08/12 06:01:44;;;;;;;2.2;2;;;;;;;26.24;53.58887;941.5385;;;;
2023/08/12 06:06:35;;;;;;;3.2;1.9;;;;;;;25.73;54.79297;941.5023;;;;
2023/08/12 06:09:43;;;;;;;1.8;1.7;;;;;;;25.91;53.71484;941.4836;;;;
2023/08/12 06:12:11;;;;;;;2.4;1.8;;;;;;;26.73;51.41895;941.4944;;;;
2023/08/12 06:14:36;;;;;;;2.2;1.7;;;;;;;26.06;54.59473;941.4632;;;;
2023/08/12 06:17:05;;;;;;;1.8;1.7;;;;;;;27.34;52.32129;941.4871;;;;
2023/08/12 06:21:59;;;;;;;1.7;1.6;;;;;;;26.8;50.58691;941.44;;;;
2023/08/12 06:24:25;;;;;;;2.2;2;;;;;;;26.19;56.11426;941.418;;;;
2023/08/12 06:26:50;;;;;;;2.2;2;;;;;;;25.54;55.86621;941.4705;;;;
2023/08/12 06:29:20;;;;;;;2.2;1.6;;;;;;;24.87;57.0459;941.4523;;;;
2023/08/12 06:31:45;;;;;;;2.1;1.9;;;;;;;24.78;58.94434;941.4723;;;;
2023/08/12 06:34:11;;;;;;;3.9;2.2;;;;;;;24.59;62.62207;941.4476;;;;
2023/08/12 06:36:36;;;;;;;2.2;2;;;;;;;24.33;62.43359;941.4469;;;;
2023/08/12 06:39:05;;;;;;;2.2;2;;;;;;;24.09;63.96387;941.4135;;;;
2023/08/12 06:41:30;;;;;;;1.9;1.8;;;;;;;24.01;62.53906;941.3739;;;;
2023/08/12 06:43:57;;;;;;;3.4;2;;;;;;;23.82;62.90234;941.3421;;;;
2023/08/12 06:46:24;;;;;;;3.6;2.3;;;;;;;23.42;65.62012;941.3242;;;;
2023/08/12 06:48:49;;;;;;;2.2;2;;;;;;;22.95;65.30469;941.3155;;;;
2023/08/12 06:51:15;;;;;;;4.2;1.9;;;;;;;23.06;68.96191;941.3421;;;;
2023/08/12 06:53:40;;;;;;;2.4;2;;;;;;;23.1;66.05371;941.3237;;;;
2023/08/12 06:56:07;;;;;;;2.4;2;;;;;;;22.88;65.35254;941.2383;;;;
2023/08/12 06:58:32;;;;;;;2.6;2.4;;;;;;;22.93;67.33203;941.2472;;;;
2023/08/12 07:00:58;;;;;;;2.4;2.2;;;;;;;22.88;68.46582;941.2657;;;;
2023/08/12 07:03:27;;;;;;;4.7;3.7;;;;;;;22.86;68.05078;941.2633;;;;
2023/08/12 07:05:52;;;;;;;2.9;2.4;;;;;;;22.71;69.06055;941.2845;;;;
2023/08/12 07:08:17;;;;;;;4;2.5;;;;;;;22.72;68.96875;941.1802;;;;
2023/08/12 07:10:42;;;;;;;2.5;2.3;;;;;;;22.57;69.83887;941.2188;;;;
2023/08/12 07:13:08;;;;;;;2.6;2.4;;;;;;;22.66;70.08594;941.2375;;;;
2023/08/12 07:15:35;;;;;;;5.3;3.5;;;;;;;22.63;69.4834;941.275;;;;
2023/08/12 07:18:02;;;;;;;3.4;2.6;;;;;;;22.64;70.09473;941.2892;;;;
2023/08/12 07:20:27;;;;;;;3.7;2.5;;;;;;;22.82;69.94629;941.2537;;;;
2023/08/12 07:22:52;;;;;;;2.8;2.5;;;;;;;22.94;69.21387;941.2371;;;;
2023/08/12 07:25:17;;;;;;;5.2;3.5;;;;;;;22.91;69.39746;941.2567;;;;
2023/08/12 07:27:45;;;;;;;3;2.5;;;;;;;23.19;68.66602;941.2237;;;;
2023/08/12 07:30:23;;;;;;;2.7;2.1;;;;;;;24.12;66.1582;941.248;;;;
2023/08/12 07:32:53;;;;;;;2.8;2.1;;;;;;;25.65;61.31641;941.2155;;;;
2023/08/12 07:35:18;;;;;;;2.4;2.2;;;;;;;25.51;58.0127;941.2509;;;;
2023/08/12 07:37:48;;;;;;;2.3;2.1;;;;;;;25.17;58.76074;941.22;;;;
2023/08/12 07:40:14;;;;;;;2.5;2.3;;;;;;;25.97;58.29688;941.236;;;;
2023/08/12 07:42:38;;;;;;;2.5;2.3;;;;;;;26.71;56.65234;941.2343;;;;
2023/08/12 07:45:04;;;;;;;2.5;2.2;;;;;;;26.99;53.74805;941.2045;;;;
2023/08/12 07:47:29;;;;;;;2.3;2.1;;;;;;;26.57;54.07715;941.1853;;;;
2023/08/12 07:50:01;;;;;;;2.4;2.2;;;;;;;27;53.89258;941.2101;;;;
2023/08/12 07:52:26;;;;;;;4;2.3;;;;;;;26.91;54.9248;941.202;;;;
2023/08/12 07:54:54;;;;;;;2.2;2;;;;;;;27.41;53.09961;941.2137;;;;
2023/08/12 07:57:20;;;;;;;2.4;2.1;;;;;;;27.28;53.73633;941.1778;;;;
2023/08/12 07:59:44;;;;;;;2.4;2.2;;;;;;;27.06;53.27148;941.1652;;;;
2023/08/12 08:02:12;;;;;;;2.6;2.1;;;;;;;27.77;52.53613;941.1556;;;;
2023/08/12 08:04:41;;;;;;;2.8;1.9;;;;;;;27.79;50.50977;941.063;;;;
2023/08/12 08:07:06;;;;;;;2.3;2.1;;;;;;;28.09;53.01367;941.1195;;;;
2023/08/12 08:09:35;;;;;;;3;2;;;;;;;28.63;49.06934;941.0965;;;;
2023/08/12 08:12:00;;;;;;;2;1.9;;;;;;;29.2;47.78516;941.0843;;;;
2023/08/12 08:14:27;;;;;;;3;2.1;;;;;;;29.6;47.65918;941.0159;;;;
2023/08/12 08:16:52;;;;;;;2.7;2;;;;;;;29.47;47.0625;941.0275;;;;
2023/08/12 08:19:19;;;;;;;2.3;2.1;;;;;;;30.07;45.4541;941.0404;;;;
2023/08/12 08:21:44;;;;;;;3;2.2;;;;;;;29.96;47.01855;941.0704;;;;
2023/08/12 08:24:13;;;;;;;3.7;3.2;;;;;;;31.31;43.65234;941.0461;;;;
2023/08/12 08:26:38;;;;;;;2.3;2.1;;;;;;;30.88;43.92188;941.0353;;;;
2023/08/12 08:29:04;;;;;;;2.1;1.9;;;;;;;29.6;45.21582;941.0198;;;;
2023/08/12 08:31:29;;;;;;;2;1.9;;;;;;;29.12;47.6084;941.0909;;;;
2023/08/12 08:33:56;;;;;;;2.3;2.1;;;;;;;28.17;50.15918;941.1127;;;;
2023/08/12 08:36:21;;;;;;;2;1.9;;;;;;;27.91;50.71191;941.0589;;;;
2023/08/12 08:38:49;;;;;;;2.3;2.1;;;;;;;27.69;51.54199;941.0293;;;;
2023/08/12 08:41:14;;;;;;;3.1;1.9;;;;;;;27.28;52.16992;941.1273;;;;
2023/08/12 08:43:40;;;;;;;2;1.9;;;;;;;27.2;55.58789;941.1131;;;;
2023/08/12 08:46:05;;;;;;;2.3;2.1;;;;;;;27.41;55.30566;941.0905;;;;
2023/08/12 08:48:31;;;;;;;2.3;2;;;;;;;27.4;53.13281;941.0655;;;;
2023/08/12 08:50:56;;;;;;;2.2;1.7;;;;;;;27.03;52.80566;941.0673;;;;
2023/08/12 08:53:23;;;;;;;3.8;2.8;;;;;;;26.59;54.58789;941.1061;;;;
2023/08/12 08:55:48;;;;;;;2.4;2.2;;;;;;;26.66;54.50293;941.1263;;;;
2023/08/12 08:58:16;;;;;;;2.8;1.9;;;;;;;26.46;54.72656;941.0698;;;;
2023/08/12 09:00:41;;;;;;;2.4;2;;;;;;;26.44;55.43457;941.1418;;;;
2023/08/12 09:03:07;;;;;;;2.4;2.2;;;;;;;26.44;55.15137;941.1685;;;;
2023/08/12 09:05:32;;;;;;;2.4;1.9;;;;;;;26.74;55.03418;941.1683;;;;
2023/08/12 09:08:02;;;;;;;2.1;1.9;;;;;;;27.22;55.69727;941.1841;;;;
2023/08/12 09:10:27;;;;;;;2.3;2.1;;;;;;;27.01;54.30859;941.1418;;;;
2023/08/12 09:12:54;;;;;;;2.7;2.2;;;;;;;27.08;55.13477;941.1478;;;;
2023/08/12 09:15:19;;;;;;;2.9;2;;;;;;;27.09;54.66211;941.1375;;;;
2023/08/12 09:17:47;;;;;;;3.2;2.3;;;;;;;27.24;54.01563;941.1772;;;;
2023/08/12 09:20:13;;;;;;;2.8;2;;;;;;;27.21;53.07715;941.1638;;;;
2023/08/12 09:22:47;;;;;;;2.5;2.3;;;;;;;27.34;54.13477;941.2026;;;;
2023/08/12 09:25:12;;;;;;;2.6;2.3;;;;;;;27.68;53.26074;941.1707;;;;
2023/08/12 09:27:37;;;;;;;2.1;2;;;;;;;27.5;52.9082;941.0906;;;;
2023/08/12 09:30:03;;;;;;;2.3;2.1;;;;;;;27.72;53.46777;941.1397;;;;
2023/08/12 09:32:28;;;;;;;2.3;2.1;;;;;;;27.92;53.06445;941.1042;;;;
2023/08/12 09:34:53;;;;;;;2.4;2.2;;;;;;;27.82;52.875;941.0508;;;;
2023/08/12 09:37:18;;;;;;;2.5;2.2;;;;;;;27.74;53.17383;941.0708;;;;
2023/08/12 09:39:44;;;;;;;2.4;2.2;;;;;;;27.57;54.12598;941.0589;;;;
2023/08/12 09:42:09;;;;;;;2.5;2.3;;;;;;;27.59;53.44141;941.0672;;;;
2023/08/12 09:44:34;;;;;;;3.5;2.5;;;;;;;27.9;53.22852;940.9816;;;;
2023/08/12 09:47:00;;;;;;;2.4;2.2;;;;;;;27.85;53.56738;941.0266;;;;
2023/08/12 09:49:29;;;;;;;2.1;2;;;;;;;28.11;51.95801;941.0073;;;;
2023/08/12 09:51:54;;;;;;;2.3;2.1;;;;;;;28.18;53.24902;941.0607;;;;
2023/08/12 09:54:19;;;;;;;2.8;2.5;;;;;;;28.17;52.28613;941.0391;;;;
2023/08/12 09:56:44;;;;;;;2.5;2.3;;;;;;;28.28;53.19141;941.0312;;;;
2023/08/12 10:02:53;;;;;;;3.1;2.3;;;;;;;28.13;52.03223;941.0095;;;;
2023/08/12 10:05:18;;;;;;;3.4;2.3;;;;;;;28.13;54.46777;940.9807;;;;
2023/08/12 10:07:43;;;;;;;3;2.7;;;;;;;28.24;52.35352;940.9913;;;;
2023/08/12 10:10:12;;;;;;;2.6;2.2;;;;;;;28.12;52.2793;941.0126;;;;
2023/08/12 10:12:41;;;;;;;2.3;2.1;;;;;;;28.27;52.73633;940.9878;;;;
2023/08/12 10:15:07;;;;;;;2.5;2.2;;;;;;;28.47;52.57031;940.9709;;;;
2023/08/12 10:17:33;;;;;;;2.5;2.3;;;;;;;28.81;50.80176;940.9142;;;;
2023/08/12 10:19:58;;;;;;;3.1;2.8;;;;;;;29.58;50.96094;940.8708;;;;
2023/08/12 10:22:23;;;;;;;2.3;2.1;;;;;;;30.41;48.1748;940.8756;;;;
2023/08/12 10:24:49;;;;;;;2.3;2.1;;;;;;;30.49;45.71191;940.8723;;;;
2023/08/12 10:27:14;;;;;;;2.3;2.1;;;;;;;30.44;47.03223;940.8459;;;;
2023/08/12 10:29:39;;;;;;;2.9;2.1;;;;;;;30.43;46.67285;940.8325;;;;
2023/08/12 10:32:05;;;;;;;2.3;2.1;;;;;;;30.03;48.50488;940.8133;;;;
2023/08/12 10:34:30;;;;;;;2.3;2.1;;;;;;;29.83;50.46289;940.7648;;;;
2023/08/12 10:36:57;;;;;;;2.6;2.1;;;;;;;29.92;48.06348;940.7509;;;;
2023/08/12 10:39:22;;;;;;;2.2;2.1;;;;;;;29.99;45.3623;940.7581;;;;
2023/08/12 10:41:50;;;;;;;2.5;2.3;;;;;;;30.05;47.18262;940.7394;;;;
2023/08/12 10:44:16;;;;;;;2.7;2.3;;;;;;;30.03;50.11523;940.6917;;;;
2023/08/12 10:46:41;;;;;;;2.8;2.2;;;;;;;30.06;45.47656;940.6816;;;;
2023/08/12 10:49:07;;;;;;;3.2;2.2;;;;;;;30.25;48.75488;940.6174;;;;
2023/08/12 10:51:32;;;;;;;2.8;2.4;;;;;;;30.31;51.87793;940.6832;;;;
2023/08/12 10:53:59;;;;;;;2.5;2.3;;;;;;;30.53;48.66504;940.6454;;;;
2023/08/12 10:56:24;;;;;;;2.7;2.1;;;;;;;31.23;47.125;940.6397;;;;
2023/08/12 10:58:49;;;;;;;2.6;2.3;;;;;;;31.87;45.4209;940.6205;;;;
2023/08/12 11:01:14;;;;;;;3;2.3;;;;;;;32.4;44.29688;940.6594;;;;
2023/08/12 11:03:39;;;;;;;2.3;2.1;;;;;;;33.14;40.99219;940.6078;;;;
2023/08/12 11:06:05;;;;;;;2.3;2.1;;;;;;;33.51;40.38867;940.6069;;;;
2023/08/12 11:08:30;;;;;;;2.6;2.4;;;;;;;33.9;39.84668;940.6011;;;;
2023/08/12 11:10:55;;;;;;;2.6;2.4;;;;;;;34.75;38.82422;940.5402;;;;
2023/08/12 11:13:22;;;;;;;2.8;2.1;;;;;;;35.36;39.01953;940.5388;;;;
2023/08/12 11:15:49;;;;;;;2.8;2.2;;;;;;;35.84;38.31152;940.4818;;;;
2023/08/12 11:18:16;;;;;;;2.4;2.2;;;;;;;36.58;35.97656;940.4832;;;;
2023/08/12 11:20:41;;;;;;;3.2;2.4;;;;;;;36.99;37.68066;940.433;;;;
2023/08/12 11:23:07;;;;;;;2.3;2.1;;;;;;;38.39;31.57324;940.4625;;;;
2023/08/12 11:25:32;;;;;;;3.2;2;;;;;;;38.98;33.80469;940.4241;;;;
2023/08/12 11:27:59;;;;;;;2.1;2;;;;;;;37.94;34.89355;940.4485;;;;
2023/08/12 11:30:24;;;;;;;2.1;1.9;;;;;;;36.5;36.17676;940.4319;;;;
2023/08/12 11:32:52;;;;;;;2.4;2.2;;;;;;;35.66;37.23242;940.3571;;;;
2023/08/12 11:35:17;;;;;;;2.6;2;;;;;;;36.11;36;940.3512;;;;
2023/08/12 11:37:46;;;;;;;3.3;2.1;;;;;;;37.57;33.77344;940.4111;;;;
2023/08/12 11:40:16;;;;;;;2.9;1.8;;;;;;;38.06;32.07227;940.3844;;;;
2023/08/12 11:42:45;;;;;;;2.2;2;;;;;;;38.88;29.74512;940.3348;;;;
2023/08/12 11:45:14;;;;;;;2;1.9;;;;;;;38.87;31.33887;940.3708;;;;
2023/08/12 11:47:39;;;;;;;2.9;2;;;;;;;38.13;34.00879;940.3459;;;;
2023/08/12 11:50:08;;;;;;;2;1.8;;;;;;;39.27;30.62305;940.306;;;;
2023/08/12 11:52:34;;;;;;;2.1;1.9;;;;;;;37.45;34.05566;940.2946;;;;
2023/08/12 11:55:00;;;;;;;2;1.8;;;;;;;38.02;33.7334;940.2816;;;;
2023/08/12 11:57:25;;;;;;;2.2;2;;;;;;;37.24;32.52441;940.3141;;;;
2023/08/12 11:59:50;;;;;;;1.8;1.7;;;;;;;36.11;35.22656;940.3325;;;;
2023/08/12 12:02:15;;;;;;;2.5;2;;;;;;;35.29;36.62402;940.2668;;;;
2023/08/12 12:04:41;;;;;;;2.9;2;;;;;;;35.44;42.09375;940.2081;;;;
2023/08/12 12:07:07;;;;;;;2.7;1.8;;;;;;;35.37;41;940.2294;;;;
2023/08/12 12:09:35;;;;;;;3.1;2.1;;;;;;;36.1;39.83203;940.1613;;;;
2023/08/12 12:12:00;;;;;;;3.8;2;;;;;;;37.09;38.34375;940.182;;;;
2023/08/12 12:14:27;;;;;;;3.1;2.2;;;;;;;37.43;38.20215;940.1916;;;;
2023/08/12 12:16:52;;;;;;;3.1;2.2;;;;;;;36.92;36.93555;940.2258;;;;
2023/08/12 12:19:17;;;;;;;2.3;2;;;;;;;36.14;38.65039;940.1704;;;;
2023/08/12 12:21:43;;;;;;;2.1;1.9;;;;;;;35.73;39.36523;940.1503;;;;
2023/08/12 12:24:08;;;;;;;2.3;2.1;;;;;;;34.37;39.93555;940.0919;;;;
2023/08/12 12:26:33;;;;;;;2.6;2.4;;;;;;;33.76;40.84375;940.0717;;;;
2023/08/12 12:28:59;;;;;;;2.5;2;;;;;;;33.09;42.3584;940.0344;;;;
2023/08/12 12:31:24;;;;;;;2.5;2.3;;;;;;;32.56;43.88086;940.0883;;;;
2023/08/12 12:33:50;;;;;;;2.5;2.3;;;;;;;32.52;44.76367;940.1362;;;;
2023/08/12 12:36:15;;;;;;;2.9;2.5;;;;;;;32.12;45.02441;940.1036;;;;
2023/08/12 12:38:43;;;;;;;2.6;2.2;;;;;;;31.71;46.30176;940.0789;;;;
2023/08/12 12:41:09;;;;;;;2.3;2.1;;;;;;;31.71;46.73242;940.1025;;;;
2023/08/12 12:43:34;;;;;;;2.5;2.2;;;;;;;31.42;49.61133;940.0964;;;;
2023/08/12 12:45:59;;;;;;;3.9;2.7;;;;;;;31.52;48.2334;940.0983;;;;
2023/08/12 12:48:27;;;;;;;2.5;2.3;;;;;;;31.29;50.56641;940.1277;;;;
2023/08/12 12:50:52;;;;;;;4.1;2.8;;;;;;;31.13;51.75781;940.1716;;;;
2023/08/12 12:53:17;;;;;;;2.5;2.3;;;;;;;30.55;55.51367;940.163;;;;
2023/08/12 12:55:44;;;;;;;2.5;2.3;;;;;;;30.53;55.74902;940.0809;;;;
2023/08/12 12:58:10;;;;;;;2.3;2.1;;;;;;;30.51;55.58008;940.1292;;;;
2023/08/12 13:00:38;;;;;;;3;2.2;;;;;;;30.44;55.11719;940.1395;;;;
2023/08/12 13:03:03;;;;;;;2.9;2.2;;;;;;;30.35;55.48926;940.1261;;;;
2023/08/12 13:05:32;;;;;;;3.3;2.4;;;;;;;30.43;56.25;940.147;;;;
2023/08/12 13:08:03;;;;;;;3.6;2.4;;;;;;;30.26;58.80762;940.1714;;;;
2023/08/12 13:10:35;;;;;;;3.1;2.5;;;;;;;30.24;61.07324;940.1481;;;;
2023/08/12 13:13:06;;;;;;;3.7;2.5;;;;;;;30.22;57.37012;940.0853;;;;
2023/08/12 13:15:40;;;;;;;3.1;2.5;;;;;;;30.36;55.19141;940.0692;;;;
2023/08/12 13:18:08;;;;;;;3.4;2.5;;;;;;;30.58;54.04688;940.048;;;;
2023/08/12 13:20:33;;;;;;;3;2.5;;;;;;;30.69;55.3877;940.055;;;;
2023/08/12 13:22:58;;;;;;;3.4;2.3;;;;;;;30.66;52.71777;940.0156;;;;
2023/08/12 13:25:26;;;;;;;3;2.2;;;;;;;31.08;51.71582;940.0231;;;;
2023/08/12 13:27:52;;;;;;;2.5;2.3;;;;;;;31.38;52.37207;939.9824;;;;
2023/08/12 13:31:06;;;;;;;3.2;2.9;;;;;;;31.86;51.09766;940.0143;;;;
2023/08/12 13:33:34;;;;;;;2.6;2.2;;;;;;;32.2;46.86816;939.9644;;;;
2023/08/12 13:35:59;;;;;;;2.4;2.2;;;;;;;32.13;50.16895;939.9943;;;;
2023/08/12 13:38:27;;;;;;;3.4;2.3;;;;;;;32.28;51.5293;939.998;;;;
2023/08/12 13:40:52;;;;;;;3;2;;;;;;;32.31;49.99609;940.0285;;;;
2023/08/12 13:43:22;;;;;;;3.2;2.4;;;;;;;32.42;47.30957;940.0375;;;;
2023/08/12 13:45:48;;;;;;;3.9;2.4;;;;;;;32.05;49.1416;940.0319;;;;
2023/08/12 13:48:17;;;;;;;2.5;2.2;;;;;;;32.41;48.90332;939.9562;;;;
2023/08/12 13:50:42;;;;;;;2.4;2.2;;;;;;;32.89;46.73438;939.9908;;;;
2023/08/12 13:53:12;;;;;;;2.6;2.3;;;;;;;33.17;46.94336;939.9364;;;;
2023/08/12 13:55:37;;;;;;;3.9;2.4;;;;;;;32.71;47.36426;940.0464;;;;
2023/08/12 13:58:02;;;;;;;2.4;2.2;;;;;;;32.57;49.10059;940.043;;;;
2023/08/12 14:00:27;;;;;;;2.5;2.3;;;;;;;32.25;51.64453;940.025;;;;
2023/08/12 14:02:57;;;;;;;2.6;2.4;;;;;;;31.87;52.89453;940.0338;;;;
2023/08/12 14:05:22;;;;;;;2.7;2.2;;;;;;;31.73;51.37012;939.9993;;;;
2023/08/12 14:07:48;;;;;;;2.4;2.1;;;;;;;31.87;48.30566;940.0386;;;;
2023/08/12 14:10:13;;;;;;;2.5;2.2;;;;;;;31.95;50.65234;939.9517;;;;
2023/08/12 14:12:41;;;;;;;7.8;2.8;;;;;;;31.71;52.91113;939.9415;;;;
2023/08/12 14:15:07;;;;;;;4.4;2.3;;;;;;;31.58;55.00391;939.9188;;;;
2023/08/12 14:17:32;;;;;;;3;2.3;;;;;;;31.65;52.92969;939.8799;;;;
2023/08/12 14:19:58;;;;;;;3.6;2.4;;;;;;;31.38;55.60254;939.8625;;;;
2023/08/12 14:22:25;;;;;;;3.9;2.8;;;;;;;31.19;58.98926;939.8973;;;;
2023/08/12 14:24:51;;;;;;;2.5;2.2;;;;;;;30.61;60.25098;939.9164;;;;
2023/08/12 14:27:20;;;;;;;2.7;2.3;;;;;;;30.92;57.24316;939.9081;;;;
2023/08/12 14:29:45;;;;;;;2.7;2.4;;;;;;;31.42;55.33301;939.8656;;;;
2023/08/12 14:32:11;;;;;;;2.7;2.5;;;;;;;31.54;56.10156;939.8641;;;;
2023/08/12 14:34:36;;;;;;;2.8;2.4;;;;;;;31.6;53.12793;939.8351;;;;
2023/08/12 14:37:02;;;;;;;2.4;2.1;;;;;;;31.72;51.63184;939.8676;;;;
2023/08/12 14:39:27;;;;;;;3.4;2.7;;;;;;;31.6;50.26563;939.8159;;;;
2023/08/12 14:41:56;;;;;;;3.8;2.3;;;;;;;31.56;50.93262;939.8122;;;;
2023/08/12 14:44:21;;;;;;;2.7;2.5;;;;;;;30.81;50.95508;939.7808;;;;
2023/08/12 14:46:49;;;;;;;2.5;2.3;;;;;;;31.02;51.02539;939.7078;;;;